createdAt,value
2019-03-24T00:00:53.717Z,102000.88
2019-03-24T00:02:02.158Z,102002.27
2019-03-24T00:03:08.551Z,102005.80
2019-03-24T00:04:17.855Z,102004.91
2019-03-24T00:05:25.418Z,102005.31
2019-03-24T00:06:31.948Z,102002.27
2019-03-24T00:07:39.433Z,102004.48
2019-03-24T00:08:46.611Z,102002.30
2019-03-24T00:09:53.421Z,102002.80
2019-03-24T00:11:02.798Z,102003.77
2019-03-24T00:12:08.956Z,102006.84
2019-03-24T00:13:17.036Z,102003.04
2019-03-24T00:14:23.400Z,101996.05
2019-03-24T00:15:50.219Z,101991.23
2019-03-24T00:16:57.414Z,101989.50
2019-03-24T00:18:05.929Z,101990.47
2019-03-24T00:19:11.979Z,101994.00
2019-03-24T00:20:18.739Z,101989.64
2019-03-24T00:21:25.921Z,101988.32
2019-03-24T00:22:32.515Z,101996.67
2019-03-24T00:23:39.489Z,102002.48
2019-03-24T00:24:47.159Z,101992.79
2019-03-24T00:25:53.419Z,101991.47
2019-03-24T00:27:00.443Z,101997.81
2019-03-24T00:28:07.505Z,101993.86
2019-03-24T00:29:14.933Z,101983.27
2019-03-24T00:30:23.275Z,101987.70
2019-03-24T00:31:30.065Z,101989.02
2019-03-24T00:32:36.295Z,101989.84
2019-03-24T00:33:44.296Z,101994.21
2019-03-24T00:34:51.084Z,101992.55
2019-03-24T00:35:57.066Z,101991.64
2019-03-24T00:37:04.936Z,101992.55
2019-03-24T00:38:11.452Z,101990.33
2019-03-24T00:39:19.546Z,101990.81
2019-03-24T00:40:26.432Z,101996.08
2019-03-24T00:41:33.434Z,101990.33
2019-03-24T00:42:39.743Z,101995.18
2019-03-24T00:43:46.698Z,101996.08
2019-03-24T00:44:53.747Z,101995.66
2019-03-24T00:45:59.912Z,101999.65
2019-03-24T00:47:06.642Z,101993.48
2019-03-24T00:48:14.592Z,101987.70
2019-03-24T00:49:20.969Z,101994.80
2019-03-24T00:50:27.951Z,101996.19
2019-03-24T00:51:35.241Z,101990.92
2019-03-24T00:52:41.992Z,101995.70
2019-03-24T00:53:48.992Z,101998.41
2019-03-24T00:54:55.882Z,101997.50
2019-03-24T00:56:02.762Z,101993.55
2019-03-24T00:57:09.882Z,102001.03
2019-03-24T00:58:18.133Z,101997.98
2019-03-24T00:59:25.332Z,101998.89
2019-03-24T01:00:46.934Z,101993.63
2019-03-24T01:01:52.977Z,101997.16
2019-03-24T01:02:59.422Z,101998.02
2019-03-24T01:04:05.822Z,101990.98
2019-03-24T01:05:11.842Z,101989.25
2019-03-24T01:06:18.129Z,101991.41
2019-03-24T01:07:25.322Z,101989.19
2019-03-24T01:08:32.049Z,101994.87
2019-03-24T01:09:39.132Z,101986.48
2019-03-24T01:10:46.362Z,101995.66
2019-03-24T01:11:53.446Z,101993.45
2019-03-24T01:13:00.032Z,101991.23
2019-03-24T01:14:06.744Z,101991.64
2019-03-24T01:15:13.784Z,101998.30
2019-03-24T01:16:21.701Z,101991.64
2019-03-24T01:17:28.161Z,101992.13
2019-03-24T01:18:34.207Z,101997.39
2019-03-24T01:19:40.803Z,101992.55
2019-03-24T01:20:47.953Z,101993.90
2019-03-24T01:21:54.183Z,101992.16
2019-03-24T01:23:01.073Z,102000.93
2019-03-24T01:24:09.099Z,102004.02
2019-03-24T01:25:15.543Z,101996.12
2019-03-24T01:26:22.287Z,102005.05
2019-03-24T01:27:28.821Z,102003.73
2019-03-24T01:28:35.290Z,102003.25
2019-03-24T01:29:42.395Z,102009.03
2019-03-24T01:30:49.020Z,101998.98
2019-03-24T01:31:55.008Z,102002.42
2019-03-24T01:33:03.070Z,102005.47
2019-03-24T01:34:09.840Z,102004.16
2019-03-24T01:35:16.737Z,101997.02
2019-03-24T01:36:23.169Z,101998.33
2019-03-24T01:37:29.970Z,101993.90
2019-03-24T01:38:37.057Z,102000.96
2019-03-24T01:39:43.999Z,101999.61
2019-03-24T01:40:52.480Z,102000.96
2019-03-24T01:42:19.950Z,101998.81
2019-03-24T01:43:26.449Z,101999.16
2019-03-24T01:44:33.347Z,102003.08
2019-03-24T01:45:40.007Z,102004.39
2019-03-24T01:46:46.860Z,101998.30
2019-03-24T01:47:53.830Z,102002.66
2019-03-24T01:48:59.930Z,101999.13
2019-03-24T01:50:07.839Z,102007.51
2019-03-24T01:51:15.140Z,102005.30
2019-03-24T01:52:21.021Z,102007.06
2019-03-24T01:53:27.334Z,102006.23
2019-03-24T01:54:34.060Z,102006.23
2019-03-24T01:55:40.210Z,102002.24
2019-03-24T01:56:47.091Z,102007.92
2019-03-24T01:57:54.061Z,102012.64
2019-03-24T01:59:00.168Z,102006.44
2019-03-24T02:00:10.080Z,102015.23
2019-03-24T02:01:16.910Z,102013.02
2019-03-24T02:02:24.060Z,102019.11
2019-03-24T02:03:31.571Z,102019.11
2019-03-24T02:04:38.611Z,102018.20
2019-03-24T02:05:45.036Z,102022.64
2019-03-24T02:06:51.187Z,102024.80
2019-03-24T02:07:59.807Z,102022.64
2019-03-24T02:09:07.900Z,102023.96
2019-03-24T02:10:15.221Z,102016.06
2019-03-24T02:11:21.699Z,102021.26
2019-03-24T02:12:28.209Z,102015.58
2019-03-24T02:13:35.540Z,102020.84
2019-03-24T02:14:43.398Z,102016.41
2019-03-24T02:15:50.301Z,102019.01
2019-03-24T02:16:59.216Z,102016.37
2019-03-24T02:18:05.560Z,102018.52
2019-03-24T02:19:12.721Z,102012.36
2019-03-24T02:20:19.451Z,102013.56
2019-03-24T02:21:25.456Z,102011.70
2019-03-24T02:22:32.591Z,102007.75
2019-03-24T02:23:39.550Z,102009.06
2019-03-24T02:24:45.481Z,102014.70
2019-03-24T02:25:52.091Z,102016.02
2019-03-24T02:26:59.343Z,102018.58
2019-03-24T02:28:06.389Z,102017.68
2019-03-24T02:29:13.638Z,102019.86
2019-03-24T02:30:20.494Z,102015.91
2019-03-24T02:31:27.051Z,102015.02
2019-03-24T02:32:34.015Z,102021.59
2019-03-24T02:33:41.597Z,102021.94
2019-03-24T02:34:49.500Z,102021.86
2019-03-24T02:35:56.949Z,102024.98
2019-03-24T02:37:03.971Z,102028.44
2019-03-24T02:38:10.052Z,102027.58
2019-03-24T02:39:16.856Z,102026.67
2019-03-24T02:40:24.343Z,102025.66
2019-03-24T02:41:30.811Z,102026.08
2019-03-24T02:42:38.352Z,102024.69
2019-03-24T02:43:44.973Z,102020.33
2019-03-24T02:44:51.292Z,102017.70
2019-03-24T02:45:58.854Z,102025.59
2019-03-24T02:47:05.462Z,102027.81
2019-03-24T02:48:12.869Z,102033.07
2019-03-24T02:49:19.912Z,102027.81
2019-03-24T02:50:26.814Z,102030.06
2019-03-24T02:51:33.462Z,102035.28
2019-03-24T02:52:39.983Z,102032.24
2019-03-24T02:53:46.252Z,102033.97
2019-03-24T02:54:53.041Z,102021.23
2019-03-24T02:55:59.903Z,102023.86
2019-03-24T02:57:07.105Z,102026.42
2019-03-24T02:58:14.603Z,102029.84
2019-03-24T02:59:21.862Z,102029.84
2019-03-24T03:00:28.222Z,102028.95
2019-03-24T03:01:35.357Z,102034.69
2019-03-24T03:02:42.303Z,102035.11
2019-03-24T03:03:49.542Z,102032.48
2019-03-24T03:04:55.589Z,102036.45
2019-03-24T03:06:02.144Z,102026.34
2019-03-24T03:07:08.573Z,102030.30
2019-03-24T03:08:35.682Z,102027.25
2019-03-24T03:09:42.904Z,102030.78
2019-03-24T03:10:50.512Z,102024.17
2019-03-24T03:11:56.645Z,102026.31
2019-03-24T03:13:02.941Z,102032.89
2019-03-24T03:14:09.784Z,102034.55
2019-03-24T03:15:15.951Z,102033.61
2019-03-24T03:16:22.733Z,102036.23
2019-03-24T03:17:30.152Z,102040.94
2019-03-24T03:18:37.014Z,102038.72
2019-03-24T03:19:43.141Z,102042.25
2019-03-24T03:20:49.953Z,102037.89
2019-03-24T03:21:56.794Z,102031.31
2019-03-24T03:23:04.104Z,102025.57
2019-03-24T03:24:10.557Z,102028.69
2019-03-24T03:25:17.284Z,102037.06
2019-03-24T03:26:24.214Z,102027.78
2019-03-24T03:27:31.040Z,102029.86
2019-03-24T03:28:37.172Z,102028.95
2019-03-24T03:29:45.603Z,102031.52
2019-03-24T03:30:52.718Z,102030.65
2019-03-24T03:31:59.125Z,102029.26
2019-03-24T03:33:05.718Z,102031.81
2019-03-24T03:34:12.761Z,102034.75
2019-03-24T03:35:18.694Z,102025.88
2019-03-24T03:36:25.574Z,102025.02
2019-03-24T03:37:32.275Z,102017.47
2019-03-24T03:38:39.125Z,102018.78
2019-03-24T03:39:45.436Z,102018.78
2019-03-24T03:40:52.669Z,102017.88
2019-03-24T03:41:59.227Z,102018.30
2019-03-24T03:43:06.030Z,102019.61
2019-03-24T03:44:12.767Z,102011.30
2019-03-24T03:45:27.877Z,102017.95
2019-03-24T03:46:34.722Z,102013.90
2019-03-24T03:47:41.707Z,102017.77
2019-03-24T03:48:47.847Z,102022.95
2019-03-24T03:49:54.350Z,102018.90
2019-03-24T03:51:01.467Z,102017.09
2019-03-24T03:52:07.849Z,102015.67
2019-03-24T03:53:14.026Z,102013.87
2019-03-24T03:54:21.969Z,102008.98
2019-03-24T03:55:28.764Z,102005.80
2019-03-24T03:56:35.112Z,102003.54
2019-03-24T03:57:41.997Z,102007.41
2019-03-24T03:58:48.017Z,102007.41
2019-03-24T03:59:54.592Z,102010.38
2019-03-24T04:01:22.169Z,102008.61
2019-03-24T04:02:28.228Z,102008.95
2019-03-24T04:03:35.242Z,102016.00
2019-03-24T04:04:41.846Z,102017.31
2019-03-24T04:05:47.857Z,102015.52
2019-03-24T04:06:54.546Z,102018.14
2019-03-24T04:08:02.518Z,102026.41
2019-03-24T04:09:08.404Z,102019.34
2019-03-24T04:10:14.965Z,102027.16
2019-03-24T04:11:21.576Z,102028.84
2019-03-24T04:12:27.743Z,102025.65
2019-03-24T04:13:34.871Z,102028.16
2019-03-24T04:14:42.307Z,102024.22
2019-03-24T04:15:49.082Z,102026.36
2019-03-24T04:17:06.870Z,102028.09
2019-03-24T04:18:05.989Z,102026.31
2019-03-24T04:19:11.848Z,102025.00
2019-03-24T04:20:18.566Z,102021.81
2019-03-24T04:21:26.427Z,102019.14
2019-03-24T04:22:32.607Z,102021.81
2019-03-24T04:23:39.439Z,102028.38
2019-03-24T04:24:46.357Z,102017.38
2019-03-24T04:25:52.433Z,102017.83
2019-03-24T04:26:59.016Z,102013.44
2019-03-24T04:28:05.973Z,102016.06
2019-03-24T04:29:14.157Z,102007.23
2019-03-24T04:30:20.673Z,101997.97
2019-03-24T04:31:28.547Z,102009.26
2019-03-24T04:32:34.881Z,102010.50
2019-03-24T04:33:42.482Z,102008.66
2019-03-24T04:34:50.972Z,102008.58
2019-03-24T04:35:56.921Z,102007.67
2019-03-24T04:37:03.341Z,102009.77
2019-03-24T04:38:10.097Z,102003.20
2019-03-24T04:39:16.917Z,102013.23
2019-03-24T04:40:24.497Z,102008.75
2019-03-24T04:41:31.397Z,102003.95
2019-03-24T04:42:37.730Z,102003.95
2019-03-24T04:43:44.731Z,102005.22
2019-03-24T04:44:51.916Z,102013.11
2019-03-24T04:45:58.036Z,102011.79
2019-03-24T04:47:16.184Z,102014.75
2019-03-24T04:48:15.228Z,102009.91
2019-03-24T04:49:21.485Z,102013.40
2019-03-24T04:50:27.758Z,102011.92
2019-03-24T04:51:34.757Z,102020.64
2019-03-24T04:52:41.205Z,102008.28
2019-03-24T04:53:48.119Z,102010.71
2019-03-24T04:54:54.949Z,102015.84
2019-03-24T04:56:00.827Z,102012.31
2019-03-24T04:57:07.676Z,102016.17
2019-03-24T04:58:14.537Z,102014.41
2019-03-24T04:59:22.087Z,102024.55
2019-03-24T05:00:38.317Z,102015.27
2019-03-24T05:01:45.620Z,102007.88
2019-03-24T05:02:51.416Z,102008.78
2019-03-24T05:03:58.307Z,102015.02
2019-03-24T05:05:06.526Z,102007.19
2019-03-24T05:06:12.727Z,102009.47
2019-03-24T05:07:19.759Z,102002.08
2019-03-24T05:08:26.629Z,102005.53
2019-03-24T05:09:32.718Z,102003.81
2019-03-24T05:10:40.276Z,102005.66
2019-03-24T05:11:46.707Z,102002.13
2019-03-24T05:12:53.257Z,102009.59
2019-03-24T05:14:00.037Z,102004.83
2019-03-24T05:15:06.955Z,102004.13
2019-03-24T05:16:13.787Z,102008.67
2019-03-24T05:17:26.919Z,102011.01
2019-03-24T05:18:29.067Z,102012.03
2019-03-24T05:19:35.627Z,102018.27
2019-03-24T05:20:43.487Z,102017.14
2019-03-24T05:21:50.084Z,102011.11
2019-03-24T05:22:56.807Z,102009.49
2019-03-24T05:24:03.724Z,102007.36
2019-03-24T05:25:09.928Z,102004.39
2019-03-24T05:26:17.166Z,102008.78
2019-03-24T05:27:24.508Z,102001.05
2019-03-24T05:28:30.839Z,101998.05
2019-03-24T05:29:37.798Z,102002.97
2019-03-24T05:30:44.908Z,102007.52
2019-03-24T05:31:50.907Z,102000.30
2019-03-24T05:32:57.319Z,101998.69
2019-03-24T05:34:04.231Z,102004.06
2019-03-24T05:35:10.067Z,102009.92
2019-03-24T05:36:16.378Z,102010.00
2019-03-24T05:37:23.569Z,102014.95
2019-03-24T05:38:29.908Z,102021.45
2019-03-24T05:39:36.825Z,102022.36
2019-03-24T05:40:43.445Z,102016.20
2019-03-24T05:41:50.568Z,102019.84
2019-03-24T05:42:57.319Z,102017.36
2019-03-24T05:44:04.576Z,102016.56
2019-03-24T05:45:10.759Z,102014.53
2019-03-24T05:46:17.228Z,102023.89
2019-03-24T05:47:23.985Z,102024.19
2019-03-24T05:48:32.792Z,102023.77
2019-03-24T05:49:40.741Z,102025.01
2019-03-24T05:50:47.929Z,102020.87
2019-03-24T05:51:54.398Z,102017.80
2019-03-24T05:53:01.199Z,102019.41
2019-03-24T05:54:08.356Z,102028.63
2019-03-24T05:55:15.438Z,102018.04
2019-03-24T05:56:22.838Z,102017.11
2019-03-24T05:57:29.856Z,102011.49
2019-03-24T05:58:36.909Z,102016.93
2019-03-24T05:59:43.545Z,102012.18
2019-03-24T06:00:51.469Z,102014.64
2019-03-24T06:01:58.498Z,102015.16
2019-03-24T06:03:05.149Z,102011.11
2019-03-24T06:04:12.438Z,102004.30
2019-03-24T06:05:19.309Z,102009.73
2019-03-24T06:06:26.328Z,102005.86
2019-03-24T06:07:33.669Z,102007.54
2019-03-24T06:08:40.089Z,102007.12
2019-03-24T06:09:47.696Z,102001.21
2019-03-24T06:10:54.119Z,102007.13
2019-03-24T06:12:00.309Z,102005.13
2019-03-24T06:13:06.936Z,102000.92
2019-03-24T06:14:14.593Z,102003.72
2019-03-24T06:15:20.489Z,101999.64
2019-03-24T06:16:26.910Z,101996.66
2019-03-24T06:17:33.602Z,101993.86
2019-03-24T06:18:40.469Z,101994.33
2019-03-24T06:19:47.230Z,102000.53
2019-03-24T06:20:53.759Z,101986.99
2019-03-24T06:22:00.629Z,101995.40
2019-03-24T06:23:07.589Z,101992.47
2019-03-24T06:24:15.419Z,101991.86
2019-03-24T06:25:21.585Z,101994.95
2019-03-24T06:26:28.349Z,101989.97
2019-03-24T06:27:34.957Z,101992.83
2019-03-24T06:28:41.260Z,101989.68
2019-03-24T06:29:48.009Z,101991.75
2019-03-24T06:30:54.720Z,101990.16
2019-03-24T06:32:00.840Z,101996.25
2019-03-24T06:33:08.710Z,101997.02
2019-03-24T06:34:15.641Z,101994.27
2019-03-24T06:35:23.119Z,102002.30
2019-03-24T06:36:31.321Z,102002.65
2019-03-24T06:37:38.156Z,102008.14
2019-03-24T06:38:44.634Z,102006.25
2019-03-24T06:39:51.349Z,102003.55
2019-03-24T06:40:58.440Z,102008.53
2019-03-24T06:42:05.134Z,102004.43
2019-03-24T06:43:11.550Z,101997.05
2019-03-24T06:44:18.171Z,102003.11
2019-03-24T06:45:28.719Z,102001.64
2019-03-24T06:46:36.267Z,102001.79
2019-03-24T06:47:45.200Z,102000.56
2019-03-24T06:48:51.480Z,101991.21
2019-03-24T06:49:57.997Z,101994.89
2019-03-24T06:51:04.830Z,101992.50
2019-03-24T06:52:11.393Z,101991.33
2019-03-24T06:53:18.358Z,101995.84
2019-03-24T06:54:24.882Z,101999.53
2019-03-24T06:55:31.216Z,101993.50
2019-03-24T06:56:37.239Z,101984.91
2019-03-24T06:57:43.919Z,101984.83
2019-03-24T06:58:49.769Z,101980.31
2019-03-24T06:59:56.558Z,101970.47
2019-03-24T07:01:03.905Z,101968.72
2019-03-24T07:02:10.391Z,101969.94
2019-03-24T07:03:17.223Z,101965.69
2019-03-24T07:04:24.254Z,101963.64
2019-03-24T07:05:30.391Z,101974.55
2019-03-24T07:06:38.217Z,101973.25
2019-03-24T07:07:44.932Z,101967.90
2019-03-24T07:08:51.023Z,101969.14
2019-03-24T07:09:57.664Z,101971.59
2019-03-24T07:11:08.488Z,101968.51
2019-03-24T07:12:12.121Z,101980.62
2019-03-24T07:13:19.344Z,101963.39
2019-03-24T07:14:26.336Z,101977.77
2019-03-24T07:15:32.754Z,101980.61
2019-03-24T07:16:39.191Z,101986.00
2019-03-24T07:17:45.911Z,101986.00
2019-03-24T07:18:51.834Z,101990.91
2019-03-24T07:19:58.381Z,101990.91
2019-03-24T07:21:06.205Z,102001.41
2019-03-24T07:22:12.534Z,101996.22
2019-03-24T07:23:19.304Z,101998.76
2019-03-24T07:24:28.062Z,101998.76
2019-03-24T07:25:34.390Z,102003.06
2019-03-24T07:26:41.283Z,101996.55
2019-03-24T07:27:49.553Z,101995.59
2019-03-24T07:28:56.471Z,101991.08
2019-03-24T07:30:04.311Z,101995.93
2019-03-24T07:31:10.656Z,102000.22
2019-03-24T07:32:17.574Z,101991.09
2019-03-24T07:33:24.032Z,101987.13
2019-03-24T07:34:30.702Z,101988.06
2019-03-24T07:35:37.704Z,101995.01
2019-03-24T07:36:44.535Z,101991.47
2019-03-24T07:37:51.195Z,101981.54
2019-03-24T07:38:57.516Z,101986.09
2019-03-24T07:40:04.492Z,101987.68
2019-03-24T07:41:11.875Z,101990.21
2019-03-24T07:42:19.122Z,101994.53
2019-03-24T07:43:25.842Z,101993.69
2019-03-24T07:44:34.055Z,101994.31
2019-03-24T07:45:42.952Z,101993.56
2019-03-24T07:46:49.285Z,101992.66
2019-03-24T07:47:56.432Z,101994.06
2019-03-24T07:49:06.762Z,101984.06
2019-03-24T07:50:13.677Z,101978.84
2019-03-24T07:51:20.175Z,101972.53
2019-03-24T07:52:27.205Z,101977.52
2019-03-24T07:53:33.422Z,101978.75
2019-03-24T07:54:41.986Z,101977.24
2019-03-24T07:55:49.585Z,101979.34
2019-03-24T07:56:55.603Z,101973.31
2019-03-24T07:58:02.442Z,101977.47
2019-03-24T07:59:10.846Z,101976.99
2019-03-24T08:00:21.846Z,101975.81
2019-03-24T08:01:30.016Z,101976.80
2019-03-24T08:02:36.873Z,101973.59
2019-03-24T08:03:44.411Z,101968.31
2019-03-24T08:04:51.187Z,101965.96
2019-03-24T08:06:18.784Z,101966.32
2019-03-24T08:07:25.435Z,101966.59
2019-03-24T08:08:32.193Z,101968.58
2019-03-24T08:09:39.512Z,101971.28
2019-03-24T08:10:45.513Z,101962.48
2019-03-24T08:11:54.204Z,101959.05
2019-03-24T08:13:00.893Z,101952.64
2019-03-24T08:14:07.136Z,101950.82
2019-03-24T08:15:17.032Z,101947.54
2019-03-24T08:16:25.615Z,101945.13
2019-03-24T08:17:32.426Z,101944.66
2019-03-24T08:18:39.634Z,101942.44
2019-03-24T08:19:46.952Z,101949.28
2019-03-24T08:20:53.772Z,101943.87
2019-03-24T08:21:59.670Z,101945.30
2019-03-24T08:23:05.614Z,101946.41
2019-03-24T08:24:12.154Z,101948.58
2019-03-24T08:25:19.241Z,101943.38
2019-03-24T08:26:26.373Z,101947.81
2019-03-24T08:27:33.143Z,101946.48
2019-03-24T08:28:40.900Z,101943.13
2019-03-24T08:29:47.393Z,101946.27
2019-03-24T08:30:54.270Z,101951.63
2019-03-24T08:32:01.073Z,101951.61
2019-03-24T08:33:07.580Z,101950.78
2019-03-24T08:34:14.221Z,101940.34
2019-03-24T08:35:20.774Z,101943.58
2019-03-24T08:36:27.334Z,101938.42
2019-03-24T08:37:35.232Z,101938.20
2019-03-24T08:38:41.586Z,101934.66
2019-03-24T08:39:48.542Z,101935.81
2019-03-24T08:40:55.013Z,101929.14
2019-03-24T08:42:05.696Z,101926.80
2019-03-24T08:43:12.036Z,101925.66
2019-03-24T08:44:18.712Z,101910.69
2019-03-24T08:45:32.110Z,101912.43
2019-03-24T08:46:38.493Z,101887.73
2019-03-24T08:47:45.352Z,101887.73
2019-03-24T08:48:53.174Z,101911.05
2019-03-24T08:49:59.946Z,101920.59
2019-03-24T08:51:07.682Z,101917.76
2019-03-24T08:52:14.715Z,101922.69
2019-03-24T08:53:21.385Z,101922.80
2019-03-24T08:54:27.826Z,101919.41
2019-03-24T08:55:34.505Z,101918.94
2019-03-24T08:56:41.648Z,101913.70
2019-03-24T08:57:47.671Z,101907.57
2019-03-24T08:58:54.473Z,101918.16
2019-03-24T09:00:03.767Z,101919.97
2019-03-24T09:01:09.473Z,101919.22
2019-03-24T09:02:15.725Z,101906.83
2019-03-24T09:03:24.496Z,101911.02
2019-03-24T09:04:32.148Z,101904.45
2019-03-24T09:05:38.515Z,101892.50
2019-03-24T09:06:46.091Z,101892.50
2019-03-24T09:07:53.088Z,101894.55
2019-03-24T09:09:00.394Z,101892.32
2019-03-24T09:10:09.153Z,101892.32
2019-03-24T09:11:30.860Z,101885.82
2019-03-24T09:12:31.221Z,101895.02
2019-03-24T09:13:37.788Z,101895.02
2019-03-24T09:14:44.734Z,101896.19
2019-03-24T09:15:52.154Z,101896.19
2019-03-24T09:16:58.172Z,101881.47
2019-03-24T09:18:05.243Z,101875.11
2019-03-24T09:19:14.122Z,101895.14
2019-03-24T09:20:20.231Z,101894.52
2019-03-24T09:21:27.311Z,101872.18
2019-03-24T09:22:33.997Z,101872.18
2019-03-24T09:23:40.764Z,101879.41
2019-03-24T09:24:48.665Z,101889.28
2019-03-24T09:25:55.455Z,101875.73
2019-03-24T09:27:02.043Z,101846.52
2019-03-24T09:28:09.328Z,101846.52
2019-03-24T09:29:15.774Z,101874.05
2019-03-24T09:30:34.744Z,101868.46
2019-03-24T09:31:41.003Z,101873.30
2019-03-24T09:32:48.394Z,101874.86
2019-03-24T09:34:02.237Z,101874.86
2019-03-24T09:35:09.013Z,101868.13
2019-03-24T09:36:16.914Z,101873.66
2019-03-24T09:37:23.593Z,101873.66
2019-03-24T09:38:30.573Z,101871.19
2019-03-24T09:39:37.473Z,101868.10
2019-03-24T09:40:43.554Z,101847.67
2019-03-24T09:41:49.973Z,101864.25
2019-03-24T09:44:20.876Z,101857.68
2019-03-24T09:45:27.533Z,101858.83
2019-03-24T09:46:35.333Z,101856.99
2019-03-24T09:47:45.343Z,101856.99
2019-03-24T09:49:02.455Z,101850.62
2019-03-24T09:50:00.533Z,101855.05
2019-03-24T09:51:06.643Z,101861.01
2019-03-24T09:52:14.893Z,101863.63
2019-03-24T09:53:21.015Z,101842.44
2019-03-24T09:54:27.346Z,101839.83
2019-03-24T09:55:34.903Z,101839.83
2019-03-24T09:56:42.158Z,101835.59
2019-03-24T09:57:49.238Z,101853.67
2019-03-24T09:58:57.847Z,101829.34
2019-03-24T10:00:05.018Z,101853.79
2019-03-24T10:01:11.256Z,101855.69
2019-03-24T10:02:17.895Z,101844.19
2019-03-24T10:03:25.424Z,101844.19
2019-03-24T10:04:31.734Z,101841.88
2019-03-24T10:05:40.016Z,101836.91
2019-03-24T10:06:47.054Z,101835.64
2019-03-24T10:07:52.966Z,101838.45
2019-03-24T10:09:00.984Z,101840.00
2019-03-24T10:10:09.633Z,101847.73
2019-03-24T10:11:16.576Z,101847.73
2019-03-24T10:12:23.976Z,101844.27
2019-03-24T10:13:30.746Z,101822.70
2019-03-24T10:14:36.716Z,101822.70
2019-03-24T10:15:43.746Z,101838.54
2019-03-24T10:16:50.888Z,101842.98
2019-03-24T10:17:56.924Z,101839.05
2019-03-24T10:19:13.271Z,101835.93
2019-03-24T10:20:11.563Z,101837.25
2019-03-24T10:21:17.816Z,101829.85
2019-03-24T10:22:26.059Z,101834.64
2019-03-24T10:23:34.228Z,101828.66
2019-03-24T10:24:40.713Z,101840.69
2019-03-24T10:25:46.717Z,101836.20
2019-03-24T10:26:52.606Z,101832.22
2019-03-24T10:27:58.890Z,101837.31
2019-03-24T10:29:05.947Z,101837.31
2019-03-24T10:30:12.427Z,101839.83
2019-03-24T10:31:18.524Z,101835.77
2019-03-24T10:32:24.545Z,101835.09
2019-03-24T10:33:30.646Z,101839.31
2019-03-24T10:34:36.548Z,101831.61
2019-03-24T10:35:43.284Z,101829.62
2019-03-24T10:36:50.055Z,101826.26
2019-03-24T10:37:57.324Z,101831.81
2019-03-24T10:39:06.004Z,101823.47
2019-03-24T10:40:13.858Z,101822.96
2019-03-24T10:41:20.095Z,101819.59
2019-03-24T10:42:26.538Z,101821.97
2019-03-24T10:43:32.874Z,101822.63
2019-03-24T10:44:40.434Z,101821.14
2019-03-24T10:45:47.345Z,101817.30
2019-03-24T10:46:53.944Z,101810.94
2019-03-24T10:48:02.338Z,101810.70
2019-03-24T10:49:08.935Z,101815.65
2019-03-24T10:50:16.634Z,101804.50
2019-03-24T10:51:23.794Z,101808.12
2019-03-24T10:52:30.108Z,101802.81
2019-03-24T10:53:36.795Z,101806.64
2019-03-24T10:54:43.518Z,101799.30
2019-03-24T10:55:50.164Z,101800.81
2019-03-24T10:56:58.275Z,101800.88
2019-03-24T10:58:04.714Z,101800.63
2019-03-24T10:59:11.744Z,101797.80
2019-03-24T11:00:23.958Z,101799.91
2019-03-24T11:01:31.736Z,101796.43
2019-03-24T11:02:39.245Z,101794.64
2019-03-24T11:03:45.868Z,101795.61
2019-03-24T11:04:52.337Z,101788.59
2019-03-24T11:05:59.830Z,101786.64
2019-03-24T11:07:06.416Z,101781.27
2019-03-24T11:08:13.474Z,101778.84
2019-03-24T11:09:22.477Z,101770.38
2019-03-24T11:10:29.658Z,101770.41
2019-03-24T11:11:35.717Z,101784.79
2019-03-24T11:12:42.423Z,101776.50
2019-03-24T11:13:49.419Z,101769.48
2019-03-24T11:14:56.058Z,101771.73
2019-03-24T11:16:03.278Z,101765.63
2019-03-24T11:17:10.600Z,101763.91
2019-03-24T11:18:17.051Z,101766.62
2019-03-24T11:19:35.035Z,101758.81
2019-03-24T11:20:35.780Z,101753.28
2019-03-24T11:21:42.263Z,101754.34
2019-03-24T11:22:48.800Z,101750.88
2019-03-24T11:23:55.840Z,101750.88
2019-03-24T11:25:02.093Z,101748.65
2019-03-24T11:26:09.000Z,101746.92
2019-03-24T11:27:15.473Z,101747.08
2019-03-24T11:28:21.483Z,101745.84
2019-03-24T11:29:27.584Z,101745.91
2019-03-24T11:30:34.023Z,101740.62
2019-03-24T11:31:40.153Z,101733.93
2019-03-24T11:32:48.193Z,101722.78
2019-03-24T11:33:55.161Z,101722.78
2019-03-24T11:35:02.122Z,101708.51
2019-03-24T11:36:10.213Z,101727.20
2019-03-24T11:37:17.312Z,101724.95
2019-03-24T11:38:24.561Z,101720.61
2019-03-24T11:39:32.800Z,101721.42
2019-03-24T11:40:59.983Z,101723.95
2019-03-24T11:42:07.214Z,101722.17
2019-03-24T11:43:13.298Z,101721.31
2019-03-24T11:44:20.229Z,101718.46
2019-03-24T11:45:29.341Z,101714.21
2019-03-24T11:46:35.862Z,101718.56
2019-03-24T11:47:42.358Z,101718.63
2019-03-24T11:48:50.069Z,101718.28
2019-03-24T11:49:57.278Z,101687.20
2019-03-24T11:51:03.241Z,101713.53
2019-03-24T11:52:09.460Z,101707.28
2019-03-24T11:53:16.218Z,101707.20
2019-03-24T11:54:25.315Z,101706.73
2019-03-24T11:55:32.510Z,101700.16
2019-03-24T11:56:39.149Z,101698.42
2019-03-24T11:57:45.559Z,101697.09
2019-03-24T11:58:52.302Z,101668.20
2019-03-24T11:59:58.989Z,101692.68
2019-03-24T12:01:05.223Z,101699.34
2019-03-24T12:02:14.291Z,101691.30
2019-03-24T12:03:21.671Z,101685.98
2019-03-24T12:04:29.562Z,101675.01
2019-03-24T12:05:37.916Z,101678.18
2019-03-24T12:06:45.111Z,101674.22
2019-03-24T12:07:51.481Z,101672.82
2019-03-24T12:08:59.674Z,101673.63
2019-03-24T12:10:28.331Z,101654.73
2019-03-24T12:11:35.065Z,101654.73
2019-03-24T12:13:02.721Z,101668.26
2019-03-24T12:14:10.583Z,101677.09
2019-03-24T12:15:17.804Z,101675.28
2019-03-24T12:16:25.442Z,101680.63
2019-03-24T12:17:33.761Z,101671.69
2019-03-24T12:18:40.914Z,101669.51
2019-03-24T12:19:56.422Z,101666.47
2019-03-24T12:20:56.084Z,101669.92
2019-03-24T12:22:03.894Z,101673.05
2019-03-24T12:23:10.914Z,101673.55
2019-03-24T12:24:18.801Z,101676.73
2019-03-24T12:25:26.692Z,101668.84
2019-03-24T12:26:33.761Z,101668.84
2019-03-24T12:27:40.681Z,101675.88
2019-03-24T12:28:47.312Z,101668.41
2019-03-24T12:29:54.597Z,101669.23
2019-03-24T12:31:02.814Z,101667.43
2019-03-24T12:32:10.542Z,101670.06
2019-03-24T12:33:17.431Z,101662.00
2019-03-24T12:34:24.522Z,101662.44
2019-03-24T12:35:30.715Z,101658.84
2019-03-24T12:36:37.561Z,101662.00
2019-03-24T12:37:44.901Z,101636.91
2019-03-24T12:38:51.184Z,101636.91
2019-03-24T12:39:59.812Z,101654.36
2019-03-24T12:41:07.402Z,101652.19
2019-03-24T12:42:15.299Z,101630.20
2019-03-24T12:43:22.602Z,101643.14
2019-03-24T12:44:29.307Z,101643.14
2019-03-24T12:45:35.632Z,101639.20
2019-03-24T12:46:44.275Z,101639.63
2019-03-24T12:47:52.032Z,101639.63
2019-03-24T12:48:58.412Z,101645.50
2019-03-24T12:50:09.966Z,101637.05